createdAt,value
2018-08-30T00:00:27.602Z,19.31
2018-08-30T00:05:22.420Z,19.30
2018-08-30T00:10:17.245Z,19.14
2018-08-30T00:15:12.087Z,19.08
2018-08-30T00:20:07.028Z,19.15
2018-08-30T00:25:01.853Z,19.17
2018-08-30T00:29:56.741Z,19.27
2018-08-30T00:34:51.573Z,19.19
2018-08-30T00:39:46.472Z,19.14
2018-08-30T00:44:41.426Z,19.25
2018-08-30T00:49:36.205Z,19.25
2018-08-30T00:54:31.045Z,19.24
2018-08-30T00:59:25.841Z,19.10
2018-08-30T01:04:20.736Z,19.13
2018-08-30T01:09:15.543Z,19.11
2018-08-30T01:14:10.371Z,19.01
2018-08-30T01:19:05.200Z,18.91
2018-08-30T01:24:00.134Z,18.75
2018-08-30T01:28:55.026Z,18.66
2018-08-30T01:33:49.998Z,18.24
2018-08-30T01:38:44.942Z,18.35
2018-08-30T01:43:39.794Z,18.35
2018-08-30T01:48:34.599Z,18.29
2018-08-30T01:53:29.477Z,18.35
2018-08-30T01:58:24.286Z,18.41
2018-08-30T02:03:19.142Z,18.48
2018-08-30T02:08:13.979Z,18.39
2018-08-30T02:13:08.922Z,18.33
2018-08-30T02:18:03.769Z,18.44
2018-08-30T02:22:58.603Z,18.40
2018-08-30T02:27:53.406Z,18.33
2018-08-30T02:32:48.362Z,18.49
2018-08-30T02:37:43.152Z,18.33
2018-08-30T02:42:37.961Z,18.41
2018-08-30T02:47:32.789Z,18.38
2018-08-30T02:52:28.492Z,18.36
2018-08-30T02:57:23.351Z,18.44
2018-08-30T03:02:18.149Z,18.39
2018-08-30T03:07:13.149Z,18.43
2018-08-30T03:12:08.166Z,18.31
2018-08-30T03:17:03.005Z,18.21
2018-08-30T03:21:57.890Z,18.33
2018-08-30T03:26:52.683Z,18.36
2018-08-30T03:31:47.454Z,18.21
2018-08-30T03:36:42.218Z,18.19
2018-08-30T03:41:37.126Z,18.05
2018-08-30T03:46:32.028Z,18.04
2018-08-30T03:51:26.822Z,17.84
2018-08-30T03:56:21.658Z,17.88
2018-08-30T04:01:16.465Z,17.98
2018-08-30T04:06:11.425Z,18.10
2018-08-30T04:11:06.234Z,18.07
2018-08-30T04:16:01.014Z,17.99
2018-08-30T04:20:55.823Z,18.06
2018-08-30T04:25:50.635Z,18.16
2018-08-30T04:30:45.462Z,18.01
2018-08-30T04:35:40.259Z,17.95
2018-08-30T04:40:35.161Z,18.02
2018-08-30T04:45:30.047Z,17.96
2018-08-30T04:50:24.876Z,17.96
2018-08-30T04:55:19.673Z,18.13
2018-08-30T05:00:14.578Z,18.05
2018-08-30T05:05:09.402Z,17.93
2018-08-30T05:10:04.329Z,17.94
2018-08-30T05:14:59.129Z,17.86
2018-08-30T05:19:53.914Z,17.84
2018-08-30T05:24:48.735Z,17.66
2018-08-30T05:29:43.647Z,17.59
2018-08-30T05:34:38.606Z,17.62
2018-08-30T05:39:33.630Z,17.70
2018-08-30T05:44:28.565Z,17.77
2018-08-30T05:49:23.455Z,17.75
2018-08-30T05:54:18.359Z,17.76
2018-08-30T05:59:13.270Z,17.84
2018-08-30T06:04:09.121Z,17.78
2018-08-30T06:09:05.153Z,17.50
2018-08-30T06:14:00.296Z,17.61
2018-08-30T06:18:55.314Z,17.62
2018-08-30T06:23:50.349Z,17.57
2018-08-30T06:28:45.375Z,17.61
2018-08-30T06:33:40.793Z,17.56
2018-08-30T06:38:35.765Z,17.70
2018-08-30T06:43:30.655Z,17.67
2018-08-30T06:48:25.644Z,17.79
2018-08-30T06:53:20.495Z,17.99
2018-08-30T06:58:15.428Z,18.03
2018-08-30T07:03:10.301Z,18.11
2018-08-30T07:08:05.283Z,18.16
2018-08-30T07:13:00.101Z,18.25
2018-08-30T07:17:54.947Z,18.36
2018-08-30T07:22:49.835Z,18.39
2018-08-30T07:27:44.721Z,18.41
2018-08-30T07:32:39.647Z,18.43
2018-08-30T07:37:35.090Z,18.46
2018-08-30T07:42:30.014Z,18.73
2018-08-30T07:47:24.850Z,19.27
2018-08-30T07:52:19.682Z,19.38
2018-08-30T07:57:14.524Z,19.53
2018-08-30T08:02:10.600Z,19.37
2018-08-30T08:07:05.706Z,19.61
2018-08-30T08:12:00.487Z,20.06
2018-08-30T08:16:55.278Z,20.14
2018-08-30T08:21:50.095Z,19.95
2018-08-30T08:26:44.876Z,19.60
2018-08-30T08:31:39.698Z,19.40
2018-08-30T08:36:34.490Z,19.26
2018-08-30T08:41:29.269Z,19.68
2018-08-30T08:46:24.145Z,20.40
2018-08-30T08:51:19.014Z,20.61
2018-08-30T08:56:13.845Z,20.59
2018-08-30T09:01:08.722Z,20.47
2018-08-30T09:06:03.626Z,20.36
2018-08-30T09:10:58.449Z,20.11
2018-08-30T09:15:53.283Z,20.15
2018-08-30T09:20:48.086Z,20.12
2018-08-30T09:25:49.883Z,19.83
2018-08-30T09:30:44.740Z,19.52
2018-08-30T09:35:39.595Z,19.52
2018-08-30T09:40:34.483Z,19.63
2018-08-30T09:45:29.378Z,19.49
2018-08-30T09:50:24.166Z,19.16
2018-08-30T09:55:19.021Z,18.81
2018-08-30T10:00:18.909Z,18.79
2018-08-30T10:05:13.791Z,18.62
2018-08-30T10:10:08.649Z,18.63
2018-08-30T10:15:03.512Z,19.00
2018-08-30T10:19:58.352Z,19.41
2018-08-30T10:24:53.278Z,19.91
2018-08-30T10:29:48.110Z,20.06
2018-08-30T10:34:42.961Z,19.99
2018-08-30T10:39:37.845Z,19.88
2018-08-30T10:44:32.712Z,20.27
2018-08-30T10:49:27.633Z,20.29
2018-08-30T10:54:22.387Z,20.12
2018-08-30T10:59:17.223Z,20.14
2018-08-30T11:04:12.184Z,19.93
2018-08-30T11:09:09.129Z,20.26
2018-08-30T11:14:03.907Z,20.97
2018-08-30T11:18:58.855Z,21.68
2018-08-30T11:23:53.752Z,22.20
2018-08-30T11:28:48.685Z,22.58
2018-08-30T11:33:43.475Z,22.57
2018-08-30T11:38:38.365Z,22.49
2018-08-30T11:43:33.170Z,21.85
2018-08-30T11:48:28.433Z,21.63
2018-08-30T11:53:23.319Z,21.40
2018-08-30T11:58:18.098Z,21.31
2018-08-30T12:03:12.985Z,21.10
2018-08-30T12:08:08.837Z,21.04
2018-08-30T12:13:03.595Z,21.21
2018-08-30T12:17:58.417Z,21.44
2018-08-30T12:22:53.282Z,21.31
2018-08-30T12:27:48.071Z,20.88
2018-08-30T12:32:42.951Z,20.74
2018-08-30T12:37:37.876Z,20.97
2018-08-30T12:42:32.761Z,21.13
2018-08-30T12:47:27.598Z,21.36
2018-08-30T12:52:22.974Z,21.32
2018-08-30T12:57:17.809Z,21.56
2018-08-30T13:02:12.735Z,22.02
2018-08-30T13:07:08.181Z,22.32
2018-08-30T13:12:03.201Z,22.25
2018-08-30T13:16:58.475Z,22.10
2018-08-30T13:21:53.569Z,22.02
2018-08-30T13:26:48.584Z,21.66
2018-08-30T13:31:44.183Z,21.76
2018-08-30T13:36:38.853Z,22.46
2018-08-30T13:41:33.957Z,23.09
2018-08-30T13:46:28.606Z,23.17
2018-08-30T13:51:23.628Z,22.36
2018-08-30T13:56:18.670Z,22.57
2018-08-30T14:01:13.724Z,22.70
2018-08-30T14:06:08.061Z,22.64
2018-08-30T14:11:03.137Z,22.28
2018-08-30T14:15:57.489Z,22.25
2018-08-30T14:20:52.448Z,22.05
2018-08-30T14:25:47.352Z,21.84
2018-08-30T14:30:42.230Z,21.85
2018-08-30T14:35:37.234Z,21.90
2018-08-30T14:40:32.228Z,22.10
2018-08-30T14:45:26.927Z,22.09
2018-08-30T14:50:21.880Z,21.82
2018-08-30T14:55:16.707Z,21.82
2018-08-30T15:00:11.548Z,21.70
2018-08-30T15:05:07.074Z,21.79
2018-08-30T15:10:01.862Z,21.77
2018-08-30T15:14:56.966Z,21.95
2018-08-30T15:19:51.859Z,21.93
2018-08-30T15:24:46.639Z,21.90
2018-08-30T15:29:41.514Z,21.69
2018-08-30T15:34:36.359Z,21.54
2018-08-30T15:39:31.268Z,21.53
2018-08-30T15:44:26.098Z,21.52
2018-08-30T15:49:20.937Z,21.25
2018-08-30T15:54:15.785Z,21.25
2018-08-30T15:59:10.687Z,21.31
2018-08-30T16:04:05.530Z,21.36
2018-08-30T16:09:00.378Z,21.26
2018-08-30T16:13:55.230Z,20.99
2018-08-30T16:18:50.133Z,20.85
2018-08-30T16:23:44.912Z,20.65
2018-08-30T16:28:39.730Z,20.59
2018-08-30T16:33:34.646Z,20.55
2018-08-30T16:38:29.535Z,20.51
2018-08-30T16:43:24.378Z,20.49
2018-08-30T16:48:19.226Z,20.34
2018-08-30T16:53:14.239Z,20.38
2018-08-30T16:58:08.885Z,20.25
2018-08-30T17:03:04.159Z,20.16
2018-08-30T17:07:59.571Z,20.00
2018-08-30T17:12:54.382Z,19.88
2018-08-30T17:17:49.257Z,19.83
2018-08-30T17:22:44.124Z,19.70
2018-08-30T17:27:39.016Z,19.63
2018-08-30T17:32:33.843Z,19.52
2018-08-30T17:37:28.681Z,19.49
2018-08-30T17:42:23.493Z,19.26
2018-08-30T17:47:18.288Z,19.20
2018-08-30T17:52:13.126Z,19.21
2018-08-30T17:57:07.970Z,19.13
2018-08-30T18:02:02.867Z,19.06
2018-08-30T18:06:57.812Z,18.95
2018-08-30T18:11:52.732Z,18.91
2018-08-30T18:16:47.631Z,18.96
2018-08-30T18:21:42.678Z,18.91
2018-08-30T18:26:37.489Z,18.77
2018-08-30T18:31:32.403Z,18.86
2018-08-30T18:36:27.230Z,18.90
2018-08-30T18:41:22.197Z,18.86
2018-08-30T18:46:17.182Z,18.81
2018-08-30T18:51:12.070Z,18.83
2018-08-30T18:56:07.093Z,18.75
2018-08-30T19:01:02.011Z,18.59
2018-08-30T19:05:57.307Z,18.72
2018-08-30T19:10:52.194Z,18.72
2018-08-30T19:15:51.965Z,18.73
2018-08-30T19:20:46.823Z,18.76
2018-08-30T19:25:41.642Z,18.77
2018-08-30T19:30:36.482Z,18.62
2018-08-30T19:35:36.522Z,18.56
2018-08-30T19:40:36.326Z,18.58
2018-08-30T19:45:31.546Z,18.59
2018-08-30T19:50:26.728Z,18.51
2018-08-30T19:55:21.588Z,18.29
2018-08-30T20:00:16.463Z,18.21
2018-08-30T20:05:11.355Z,18.27
2018-08-30T20:10:07.181Z,18.15
2018-08-30T20:15:02.050Z,18.17
2018-08-30T20:19:56.922Z,18.23
2018-08-30T20:24:51.767Z,18.16
2018-08-30T20:29:46.700Z,18.17
2018-08-30T20:34:41.483Z,18.17
2018-08-30T20:39:36.295Z,18.10
2018-08-30T20:44:31.112Z,18.04
2018-08-30T20:49:25.931Z,17.98
2018-08-30T20:54:20.842Z,17.99
2018-08-30T20:59:15.649Z,17.98
2018-08-30T21:04:10.508Z,18.00
2018-08-30T21:09:07.646Z,17.99
2018-08-30T21:14:02.552Z,17.96
2018-08-30T21:18:57.816Z,17.96
2018-08-30T21:23:52.673Z,17.96
2018-08-30T21:28:47.613Z,17.84
2018-08-30T21:33:42.465Z,17.91
2018-08-30T21:38:37.273Z,17.82
2018-08-30T21:43:32.189Z,17.83
2018-08-30T21:48:27.005Z,17.78
2018-08-30T21:53:21.868Z,17.75
2018-08-30T21:58:16.983Z,17.78
2018-08-30T22:03:11.808Z,17.82
2018-08-30T22:08:06.767Z,17.75
2018-08-30T22:13:01.614Z,17.69
2018-08-30T22:17:56.505Z,17.73
2018-08-30T22:22:51.301Z,17.63
2018-08-30T22:27:46.117Z,17.51
2018-08-30T22:32:40.927Z,17.51
2018-08-30T22:37:35.947Z,17.57
2018-08-30T22:42:30.818Z,17.65
2018-08-30T22:47:25.614Z,17.72
2018-08-30T22:52:20.434Z,17.69
2018-08-30T22:57:15.238Z,17.63
2018-08-30T23:02:10.082Z,17.57
2018-08-30T23:07:05.048Z,17.60
2018-08-30T23:11:59.901Z,17.59
2018-08-30T23:16:54.741Z,17.54
2018-08-30T23:21:49.566Z,17.49
2018-08-30T23:26:44.394Z,17.42
2018-08-30T23:31:39.229Z,17.48
2018-08-30T23:36:34.045Z,17.44
2018-08-30T23:41:28.841Z,17.40
2018-08-30T23:46:23.693Z,17.39
2018-08-30T23:51:18.661Z,17.48
2018-08-30T23:56:13.540Z,17.50
